sensor_id;sensor_type;location;lat;lon;timestamp;pressure;altitude;pressure_sealevel;temperature;humidity
75972;BME280;64651;47.540;19.088;2024-01-15T00:01:44;99181.16;;;22.14;34.69
75972;BME280;64651;47.540;19.088;2024-01-15T00:06:46;99166.38;;;22.17;34.72
75972;BME280;64651;47.540;19.088;2024-01-15T00:11:49;99158.75;;;22.14;34.51
75972;BME280;64651;47.540;19.088;2024-01-15T00:16:52;99169.19;;;22.17;34.49
75972;BME280;64651;47.540;19.088;2024-01-15T00:21:56;99160.78;;;22.17;34.16
75972;BME280;64651;47.540;19.088;2024-01-15T00:26:59;99133.53;;;22.14;34.10
75972;BME280;64651;47.540;19.088;2024-01-15T00:32:01;99129.12;;;22.13;34.17
75972;BME280;64651;47.540;19.088;2024-01-15T00:37:03;99102.69;;;22.11;33.96
75972;BME280;64651;47.540;19.088;2024-01-15T00:42:08;99103.50;;;22.11;33.92
75972;BME280;64651;47.540;19.088;2024-01-15T00:47:11;99107.88;;;22.09;33.74
75972;BME280;64651;47.540;19.088;2024-01-15T00:52:13;99110.28;;;22.10;33.80
75972;BME280;64651;47.540;19.088;2024-01-15T00:57:15;99110.28;;;22.07;33.57
75972;BME280;64651;47.540;19.088;2024-01-15T01:02:17;99102.69;;;22.11;33.68
75972;BME280;64651;47.540;19.088;2024-01-15T01:07:20;99099.47;;;22.09;33.63
75972;BME280;64651;47.540;19.088;2024-01-15T01:12:22;99096.25;;;22.07;33.34
75972;BME280;64651;47.540;19.088;2024-01-15T01:17:24;99091.84;;;22.06;33.40
75972;BME280;64651;47.540;19.088;2024-01-15T01:22:27;99070.25;;;22.06;33.33
75972;BME280;64651;47.540;19.088;2024-01-15T01:27:29;99073.00;;;22.03;33.36
75972;BME280;64651;47.540;19.088;2024-01-15T01:32:31;99057.81;;;22.04;33.41
75972;BME280;64651;47.540;19.088;2024-01-15T01:37:33;99051.41;;;22.03;33.45
75972;BME280;64651;47.540;19.088;2024-01-15T01:42:36;99047.41;;;22.04;33.66
75972;BME280;64651;47.540;19.088;2024-01-15T01:47:39;99026.56;;;21.98;33.49
75972;BME280;64651;47.540;19.088;2024-01-15T01:52:41;99012.94;;;21.97;33.62
75972;BME280;64651;47.540;19.088;2024-01-15T01:57:44;99012.16;;;22.00;33.36
75972;BME280;64651;47.540;19.088;2024-01-15T02:02:46;99011.38;;;21.99;33.56
75972;BME280;64651;47.540;19.088;2024-01-15T02:07:49;99007.75;;;21.99;33.45
75972;BME280;64651;47.540;19.088;2024-01-15T02:12:51;99002.53;;;21.97;33.38
75972;BME280;64651;47.540;19.088;2024-01-15T02:23:15;98987.31;;;21.95;33.34
75972;BME280;64651;47.540;19.088;2024-01-15T02:28:18;98996.13;;;21.97;33.24
75972;BME280;64651;47.540;19.088;2024-01-15T02:33:20;99002.91;;;21.96;33.14
75972;BME280;64651;47.540;19.088;2024-01-15T02:38:22;98995.28;;;21.93;33.34
75972;BME280;64651;47.540;19.088;2024-01-15T02:43:24;98972.44;;;21.91;33.34
75972;BME280;64651;47.540;19.088;2024-01-15T02:48:26;98968.84;;;21.90;33.43
75972;BME280;64651;47.540;19.088;2024-01-15T02:53:29;98966.44;;;21.89;33.26
75972;BME280;64651;47.540;19.088;2024-01-15T02:58:31;98970.41;;;21.84;33.41
75972;BME280;64651;47.540;19.088;2024-01-15T03:03:33;98960.84;;;21.89;33.32
75972;BME280;64651;47.540;19.088;2024-01-15T03:08:35;98958.44;;;21.87;33.27
75972;BME280;64651;47.540;19.088;2024-01-15T03:13:38;98943.63;;;21.90;33.34
75972;BME280;64651;47.540;19.088;2024-01-15T03:18:40;98937.22;;;21.90;33.34
75972;BME280;64651;47.540;19.088;2024-01-15T03:23:42;98915.19;;;21.84;33.27
75972;BME280;64651;47.540;19.088;2024-01-15T03:28:44;98916.00;;;21.85;33.25
75972;BME280;64651;47.540;19.088;2024-01-15T03:33:46;98917.63;;;21.86;32.98
75972;BME280;64651;47.540;19.088;2024-01-15T03:38:49;98907.97;;;21.80;33.07
75972;BME280;64651;47.540;19.088;2024-01-15T03:43:51;98950.81;;;21.84;33.02
75972;BME280;64651;47.540;19.088;2024-01-15T03:48:53;98938.41;;;21.81;32.96
75972;BME280;64651;47.540;19.088;2024-01-15T03:53:55;98931.56;;;21.79;32.95
75972;BME280;64651;47.540;19.088;2024-01-15T03:58:58;98949.22;;;21.83;32.93
75972;BME280;64651;47.540;19.088;2024-01-15T04:04:00;98942.37;;;21.80;32.78
75972;BME280;64651;47.540;19.088;2024-01-15T04:09:02;98940.00;;;21.82;32.82
75972;BME280;64651;47.540;19.088;2024-01-15T04:14:04;98935.56;;;21.78;32.58
75972;BME280;64651;47.540;19.088;2024-01-15T04:19:07;98906.38;;;21.79;32.58
75972;BME280;64651;47.540;19.088;2024-01-15T04:24:09;98917.19;;;21.80;32.50
75972;BME280;64651;47.540;19.088;2024-01-15T04:29:11;98903.19;;;21.80;32.50
75972;BME280;64651;47.540;19.088;2024-01-15T04:34:14;98883.97;;;21.79;32.38
75972;BME280;64651;47.540;19.088;2024-01-15T04:39:16;98883.16;;;21.78;32.46
75972;BME280;64651;47.540;19.088;2024-01-15T04:44:18;98883.97;;;21.79;32.44
75972;BME280;64651;47.540;19.088;2024-01-15T04:49:21;98892.75;;;21.77;32.43
75972;BME280;64651;47.540;19.088;2024-01-15T04:54:23;98890.00;;;21.81;32.56
75972;BME280;64651;47.540;19.088;2024-01-15T04:59:25;98885.59;;;21.80;32.46
75972;BME280;64651;47.540;19.088;2024-01-15T05:04:27;98881.16;;;21.79;32.31
75972;BME280;64651;47.540;19.088;2024-01-15T05:09:29;98895.97;;;21.76;32.31
75972;BME280;64651;47.540;19.088;2024-01-15T05:14:34;98903.56;;;21.79;32.30
75972;BME280;64651;47.540;19.088;2024-01-15T05:19:36;98900.38;;;21.77;32.27
75972;BME280;64651;47.540;19.088;2024-01-15T05:24:38;98920.75;;;21.77;32.39
75972;BME280;64651;47.540;19.088;2024-01-15T05:29:40;98905.56;;;21.75;32.33
75972;BME280;64651;47.540;19.088;2024-01-15T05:34:43;98912.75;;;21.76;32.24
75972;BME280;64651;47.540;19.088;2024-01-15T05:39:45;98887.94;;;21.74;32.14
75972;BME280;64651;47.540;19.088;2024-01-15T05:44:47;98909.16;;;21.75;32.25
75972;BME280;64651;47.540;19.088;2024-01-15T05:49:49;98920.34;;;21.75;32.18
75972;BME280;64651;47.540;19.088;2024-01-15T05:54:52;98911.91;;;21.72;32.15
75972;BME280;64651;47.540;19.088;2024-01-15T05:59:54;98914.34;;;21.73;32.27
75972;BME280;64651;47.540;19.088;2024-01-15T06:04:56;98905.56;;;21.75;32.19
75972;BME280;64651;47.540;19.088;2024-01-15T06:09:59;98893.13;;;21.72;32.10
75972;BME280;64651;47.540;19.088;2024-01-15T06:15:01;98887.94;;;21.74;32.13
75972;BME280;64651;47.540;19.088;2024-01-15T06:20:05;98880.75;;;21.73;32.13
75972;BME280;64651;47.540;19.088;2024-01-15T06:25:08;98889.94;;;21.74;32.10
75972;BME280;64651;47.540;19.088;2024-01-15T06:30:10;98890.38;;;21.76;31.98
75972;BME280;64651;47.540;19.088;2024-01-15T06:35:14;98891.13;;;21.73;32.00
75972;BME280;64651;47.540;19.088;2024-01-15T06:40:16;98898.75;;;21.76;31.98
75972;BME280;64651;47.540;19.088;2024-01-15T06:45:18;98896.72;;;21.73;31.81
75972;BME280;64651;47.540;19.088;2024-01-15T06:50:20;98906.75;;;21.74;31.97
75972;BME280;64651;47.540;19.088;2024-01-15T06:55:22;98899.53;;;21.73;31.92
75972;BME280;64651;47.540;19.088;2024-01-15T07:00:25;98904.47;;;21.35;28.87
75972;BME280;64651;47.540;19.088;2024-01-15T07:05:27;98900.25;;;18.18;28.49
75972;BME280;64651;47.540;19.088;2024-01-15T07:10:32;98916.22;;;16.70;29.20
75972;BME280;64651;47.540;19.088;2024-01-15T07:15:38;98932.84;;;15.62;30.39
75972;BME280;64651;47.540;19.088;2024-01-15T07:20:40;98916.63;;;14.67;31.20
75972;BME280;64651;47.540;19.088;2024-01-15T07:25:42;98944.72;;;14.23;31.39
75972;BME280;64651;47.540;19.088;2024-01-15T07:30:45;98950.00;;;13.75;32.13
75972;BME280;64651;47.540;19.088;2024-01-15T07:35:47;98947.75;;;15.09;32.99
75972;BME280;64651;47.540;19.088;2024-01-15T07:40:55;98946.91;;;16.33;33.10
75972;BME280;64651;47.540;19.088;2024-01-15T07:45:58;98953.78;;;17.26;32.43
75972;BME280;64651;47.540;19.088;2024-01-15T07:51:00;98947.44;;;17.92;32.05
75972;BME280;64651;47.540;19.088;2024-01-15T07:56:03;98962.03;;;18.43;31.49
75972;BME280;64651;47.540;19.088;2024-01-15T08:01:05;98959.25;;;18.82;31.21
75972;BME280;64651;47.540;19.088;2024-01-15T08:06:08;98948.38;;;19.19;31.08
75972;BME280;64651;47.540;19.088;2024-01-15T08:11:12;98940.03;;;19.45;30.86
75972;BME280;64651;47.540;19.088;2024-01-15T08:16:14;98958.38;;;19.69;30.75
75972;BME280;64651;47.540;19.088;2024-01-15T08:21:16;98953.81;;;19.83;30.64
75972;BME280;64651;47.540;19.088;2024-01-15T08:26:18;98970.06;;;20.04;30.69
75972;BME280;64651;47.540;19.088;2024-01-15T08:31:20;98975.84;;;20.18;30.56
75972;BME280;64651;47.540;19.088;2024-01-15T08:36:23;98954.06;;;20.31;30.54
75972;BME280;64651;47.540;19.088;2024-01-15T08:41:26;98976.19;;;20.43;30.33
75972;BME280;64651;47.540;19.088;2024-01-15T08:46:29;98968.69;;;20.51;30.17
75972;BME280;64651;47.540;19.088;2024-01-15T08:51:31;98959.13;;;20.48;30.46
75972;BME280;64651;47.540;19.088;2024-01-15T08:56:33;98977.56;;;20.56;30.13
75972;BME280;64651;47.540;19.088;2024-01-15T09:01:36;98975.66;;;20.64;30.22
75972;BME280;64651;47.540;19.088;2024-01-15T09:06:40;98973.66;;;20.64;30.16
75972;BME280;64651;47.540;19.088;2024-01-15T09:11:42;98971.72;;;20.69;30.21
75972;BME280;64651;47.540;19.088;2024-01-15T09:16:45;98985.78;;;20.76;30.17
75972;BME280;64651;47.540;19.088;2024-01-15T09:21:47;98991.81;;;20.81;29.83
75972;BME280;64651;47.540;19.088;2024-01-15T09:26:49;98974.69;;;20.83;30.00
75972;BME280;64651;47.540;19.088;2024-01-15T09:31:51;98963.13;;;20.88;29.72
75972;BME280;64651;47.540;19.088;2024-01-15T09:36:54;98949.63;;;20.93;29.59
75972;BME280;64651;47.540;19.088;2024-01-15T09:41:57;98962.47;;;20.98;29.58
75972;BME280;64651;47.540;19.088;2024-01-15T09:47:00;98940.50;;;21.00;29.75
75972;BME280;64651;47.540;19.088;2024-01-15T09:52:03;98940.13;;;21.05;29.64
75972;BME280;64651;47.540;19.088;2024-01-15T09:57:13;98936.13;;;21.02;29.60
75972;BME280;64651;47.540;19.088;2024-01-15T10:02:15;98923.41;;;21.09;29.66
75972;BME280;64651;47.540;19.088;2024-01-15T10:07:20;98906.72;;;21.16;29.91
75972;BME280;64651;47.540;19.088;2024-01-15T10:12:24;98899.59;;;21.25;29.79
75972;BME280;64651;47.540;19.088;2024-01-15T10:17:26;98888.47;;;21.36;29.63
75972;BME280;64651;47.540;19.088;2024-01-15T10:22:33;98890.56;;;21.46;29.59
75972;BME280;64651;47.540;19.088;2024-01-15T10:27:35;98896.66;;;21.62;29.47
75972;BME280;64651;47.540;19.088;2024-01-15T10:32:37;98874.72;;;21.71;29.39
75972;BME280;64651;47.540;19.088;2024-01-15T10:37:41;98868.78;;;21.80;29.45
75972;BME280;64651;47.540;19.088;2024-01-15T10:42:43;98860.84;;;21.89;29.60
75972;BME280;64651;47.540;19.088;2024-01-15T10:47:46;98863.66;;;21.93;29.70
75972;BME280;64651;47.540;19.088;2024-01-15T10:52:48;98874.47;;;21.94;29.29
75972;BME280;64651;47.540;19.088;2024-01-15T10:57:51;98869.31;;;22.00;29.63
75972;BME280;64651;47.540;19.088;2024-01-15T11:02:54;98882.56;;;22.06;29.61
75972;BME280;64651;47.540;19.088;2024-01-15T11:08:01;98871.38;;;22.13;29.69
75972;BME280;64651;47.540;19.088;2024-01-15T11:13:03;98864.56;;;22.14;29.54
75972;BME280;64651;47.540;19.088;2024-01-15T11:18:06;98875.81;;;22.25;29.67
75972;BME280;64651;47.540;19.088;2024-01-15T11:23:46;98853.81;;;22.31;29.69
75972;BME280;64651;47.540;19.088;2024-01-15T11:28:55;98843.03;;;22.36;29.95
75972;BME280;64651;47.540;19.088;2024-01-15T11:34:08;98845.44;;;22.38;29.62
75972;BME280;64651;47.540;19.088;2024-01-15T11:44:31;98834.25;;;22.52;29.87
75972;BME280;64651;47.540;19.088;2024-01-15T11:50:02;98827.84;;;22.55;30.06
75972;BME280;64651;47.540;19.088;2024-01-15T11:55:22;98839.47;;;22.60;29.85
75972;BME280;64651;47.540;19.088;2024-01-15T12:00:24;98815.06;;;22.61;29.90
75972;BME280;64651;47.540;19.088;2024-01-15T12:05:26;98795.44;;;22.61;30.00
75972;BME280;64651;47.540;19.088;2024-01-15T12:10:28;98816.25;;;22.67;30.06
75972;BME280;64651;47.540;19.088;2024-01-15T12:15:31;98817.44;;;22.66;29.80
75972;BME280;64651;47.540;19.088;2024-01-15T12:20:34;98816.25;;;22.67;30.05
75972;BME280;64651;47.540;19.088;2024-01-15T12:25:36;98804.28;;;22.74;30.03
75972;BME280;64651;47.540;19.088;2024-01-15T12:30:39;98798.69;;;22.81;30.05
75972;BME280;64651;47.540;19.088;2024-01-15T12:35:42;98788.66;;;22.83;29.93
75972;BME280;64651;47.540;19.088;2024-01-15T12:40:44;98783.81;;;22.87;29.98
75972;BME280;64651;47.540;19.088;2024-01-15T12:45:50;98781.03;;;22.91;29.81
75972;BME280;64651;47.540;19.088;2024-01-15T12:50:52;98767.00;;;22.91;30.11
75972;BME280;64651;47.540;19.088;2024-01-15T12:55:54;98772.19;;;22.99;29.95
75972;BME280;64651;47.540;19.088;2024-01-15T13:00:57;98766.59;;;23.03;29.82
75972;BME280;64651;47.540;19.088;2024-01-15T13:05:59;98756.19;;;23.03;29.79
75972;BME280;64651;47.540;19.088;2024-01-15T13:11:02;98766.59;;;23.03;29.48
75972;BME280;64651;47.540;19.088;2024-01-15T13:16:05;98767.00;;;22.98;29.46
75972;BME280;64651;47.540;19.088;2024-01-15T13:21:07;98777.03;;;22.95;29.45
75972;BME280;64651;47.540;19.088;2024-01-15T13:26:09;98770.22;;;22.93;29.56
75972;BME280;64651;47.540;19.088;2024-01-15T13:31:11;98763.00;;;22.92;29.50
75972;BME280;64651;47.540;19.088;2024-01-15T13:36:14;98762.19;;;22.95;29.54
75972;BME280;64651;47.540;19.088;2024-01-15T13:41:17;98773.81;;;22.93;29.44
75972;BME280;64651;47.540;19.088;2024-01-15T13:46:22;98789.84;;;23.00;29.35
75972;BME280;64651;47.540;19.088;2024-01-15T13:51:25;98783.44;;;23.03;29.50
75972;BME280;64651;47.540;19.088;2024-01-15T13:56:27;98778.59;;;23.00;29.42
75972;BME280;64651;47.540;19.088;2024-01-15T14:01:33;98787.84;;;23.08;29.41
75972;BME280;64651;47.540;19.088;2024-01-15T14:06:35;98782.22;;;23.08;29.46
75972;BME280;64651;47.540;19.088;2024-01-15T14:11:38;98785.44;;;23.10;29.39
75972;BME280;64651;47.540;19.088;2024-01-15T14:16:40;98780.22;;;23.08;29.37
75972;BME280;64651;47.540;19.088;2024-01-15T14:21:42;98767.78;;;23.05;29.06
75972;BME280;64651;47.540;19.088;2024-01-15T14:26:44;98788.25;;;23.10;29.28
75972;BME280;64651;47.540;19.088;2024-01-15T14:31:47;98787.44;;;23.02;29.36
75972;BME280;64651;47.540;19.088;2024-01-15T14:36:50;98783.84;;;22.98;29.03
75972;BME280;64651;47.540;19.088;2024-01-15T14:41:52;98775.41;;;22.94;28.55
75972;BME280;64651;47.540;19.088;2024-01-15T14:46:54;98782.63;;;22.88;28.67
75972;BME280;64651;47.540;19.088;2024-01-15T14:51:57;98796.66;;;22.88;28.91
75972;BME280;64651;47.540;19.088;2024-01-15T14:57:00;98788.66;;;22.83;29.06
75972;BME280;64651;47.540;19.088;2024-01-15T15:02:02;98801.88;;;22.86;29.11
75972;BME280;64651;47.540;19.088;2024-01-15T15:07:05;98794.25;;;22.83;29.19
75972;BME280;64651;47.540;19.088;2024-01-15T15:12:08;98784.66;;;22.84;29.07
75972;BME280;64651;47.540;19.088;2024-01-15T15:17:11;98783.44;;;22.85;28.91
75972;BME280;64651;47.540;19.088;2024-01-15T15:22:14;98779.03;;;22.84;28.96
75972;BME280;64651;47.540;19.088;2024-01-15T15:27:16;98783.06;;;22.87;28.93
75972;BME280;64651;47.540;19.088;2024-01-15T15:32:18;98785.06;;;22.86;28.86
75972;BME280;64651;47.540;19.088;2024-01-15T15:37:20;98776.22;;;22.84;28.93
75972;BME280;64651;47.540;19.088;2024-01-15T15:42:22;98777.03;;;22.85;28.91
75972;BME280;64651;47.540;19.088;2024-01-15T15:47:26;98787.84;;;22.83;28.87
75972;BME280;64651;47.540;19.088;2024-01-15T15:52:28;98778.62;;;22.82;28.89
75972;BME280;64651;47.540;19.088;2024-01-15T15:57:31;98768.22;;;22.79;28.88
75972;BME280;64651;47.540;19.088;2024-01-15T16:02:34;98764.59;;;22.75;28.76
75972;BME280;64651;47.540;19.088;2024-01-15T16:07:36;98787.84;;;22.79;28.73
75972;BME280;64651;47.540;19.088;2024-01-15T16:12:39;98820.69;;;22.75;28.83
75972;BME280;64651;47.540;19.088;2024-01-15T16:17:41;98825.91;;;22.80;28.47
75972;BME280;64651;47.540;19.088;2024-01-15T16:23:03;98813.88;;;22.76;28.66
75972;BME280;64651;47.540;19.088;2024-01-15T16:28:25;98819.09;;;22.74;28.78
75972;BME280;64651;47.540;19.088;2024-01-15T16:33:28;98798.22;;;22.72;28.74
75972;BME280;64651;47.540;19.088;2024-01-15T16:38:30;98825.84;;;22.70;28.64
75972;BME280;64651;47.540;19.088;2024-01-15T16:43:32;98823.47;;;22.72;28.65
75972;BME280;64651;47.540;19.088;2024-01-15T16:48:34;98830.28;;;22.67;28.63
75972;BME280;64651;47.540;19.088;2024-01-15T16:53:37;98839.50;;;22.71;28.42
75972;BME280;64651;47.540;19.088;2024-01-15T16:58:39;98848.72;;;22.68;28.57
75972;BME280;64651;47.540;19.088;2024-01-15T17:03:41;98855.50;;;22.67;28.36
75972;BME280;64651;47.540;19.088;2024-01-15T17:08:43;98863.94;;;22.67;28.54
75972;BME280;64651;47.540;19.088;2024-01-15T17:13:45;98875.53;;;22.69;28.40
75972;BME280;64651;47.540;19.088;2024-01-15T17:18:48;98877.12;;;22.66;28.52
75972;BME280;64651;47.540;19.088;2024-01-15T17:23:50;98873.16;;;22.67;28.35
75972;BME280;64651;47.540;19.088;2024-01-15T17:28:52;98858.72;;;22.65;28.38
75972;BME280;64651;47.540;19.088;2024-01-15T17:33:54;98855.91;;;22.65;28.13
75972;BME280;64651;47.540;19.088;2024-01-15T17:39:00;98874.72;;;22.65;28.23
75972;BME280;64651;47.540;19.088;2024-01-15T17:44:02;98871.50;;;22.63;28.39
75972;BME280;64651;47.540;19.088;2024-01-15T17:49:04;98854.72;;;22.66;28.24
75972;BME280;64651;47.540;19.088;2024-01-15T17:54:07;98858.31;;;22.67;28.12
75972;BME280;64651;47.540;19.088;2024-01-15T17:59:11;98861.09;;;22.63;27.92
75972;BME280;64651;47.540;19.088;2024-01-15T18:04:13;98869.12;;;22.65;28.10
75972;BME280;64651;47.540;19.088;2024-01-15T18:09:17;98849.06;;;22.63;28.01
75972;BME280;64651;47.540;19.088;2024-01-15T18:14:19;98856.31;;;22.60;28.37
75972;BME280;64651;47.540;19.088;2024-01-15T18:19:21;98854.28;;;22.64;27.95
75972;BME280;64651;47.540;19.088;2024-01-15T18:24:23;98881.13;;;22.65;28.02
75972;BME280;64651;47.540;19.088;2024-01-15T18:29:26;98892.34;;;22.65;27.95
75972;BME280;64651;47.540;19.088;2024-01-15T18:34:28;98861.91;;;22.64;28.10
75972;BME280;64651;47.540;19.088;2024-01-15T18:39:30;98861.91;;;22.64;28.10
75972;BME280;64651;47.540;19.088;2024-01-15T18:44:32;98887.56;;;22.62;28.08
75972;BME280;64651;47.540;19.088;2024-01-15T18:49:34;98926.00;;;22.65;28.18
75972;BME280;64651;47.540;19.088;2024-01-15T18:54:38;98941.59;;;22.63;28.17
75972;BME280;64651;47.540;19.088;2024-01-15T18:59:43;98943.63;;;22.66;28.41
75972;BME280;64651;47.540;19.088;2024-01-15T19:04:48;98929.62;;;22.62;28.51
75972;BME280;64651;47.540;19.088;2024-01-15T19:09:51;98936.41;;;22.65;28.91
75972;BME280;64651;47.540;19.088;2024-01-15T19:14:53;98946.81;;;22.64;29.10
75972;BME280;64651;47.540;19.088;2024-01-15T19:19:55;98943.63;;;22.66;29.20
75972;BME280;64651;47.540;19.088;2024-01-15T19:24:57;98917.59;;;22.65;29.24
75972;BME280;64651;47.540;19.088;2024-01-15T19:30:00;98937.62;;;22.67;29.46
75972;BME280;64651;47.540;19.088;2024-01-15T19:35:02;98942.81;;;22.69;29.29
75972;BME280;64651;47.540;19.088;2024-01-15T19:40:05;98933.63;;;22.69;29.59
75972;BME280;64651;47.540;19.088;2024-01-15T19:45:08;98924.81;;;22.70;29.72
75972;BME280;64651;47.540;19.088;2024-01-15T19:50:11;98918.00;;;22.71;29.64
75972;BME280;64651;47.540;19.088;2024-01-15T19:55:13;98912.78;;;22.70;29.54
75972;BME280;64651;47.540;19.088;2024-01-15T20:00:16;98914.03;;;22.72;29.69
75972;BME280;64651;47.540;19.088;2024-01-15T20:05:18;98914.41;;;22.71;29.63
75972;BME280;64651;47.540;19.088;2024-01-15T20:10:20;98927.63;;;22.66;29.80
75972;BME280;64651;47.540;19.088;2024-01-15T20:15:23;98947.69;;;22.72;29.61
75972;BME280;64651;47.540;19.088;2024-01-15T20:20:25;98969.69;;;22.70;29.53
75972;BME280;64651;47.540;19.088;2024-01-15T20:25:33;98983.69;;;22.70;29.63
75972;BME280;64651;47.540;19.088;2024-01-15T20:30:46;99004.13;;;22.71;29.64
75972;BME280;64651;47.540;19.088;2024-01-15T20:35:49;99022.56;;;22.68;29.68
75972;BME280;64651;47.540;19.088;2024-01-15T20:40:52;98989.31;;;22.70;29.60
75972;BME280;64651;47.540;19.088;2024-01-15T20:45:55;98985.31;;;22.71;29.83
75972;BME280;64651;47.540;19.088;2024-01-15T20:50:57;99019.34;;;22.70;29.49
75972;BME280;64651;47.540;19.088;2024-01-15T20:56:00;99020.16;;;22.70;29.77
75972;BME280;64651;47.540;19.088;2024-01-15T21:01:05;99016.16;;;22.67;29.69
75972;BME280;64651;47.540;19.088;2024-01-15T21:06:08;98996.53;;;22.67;29.72
75972;BME280;64651;47.540;19.088;2024-01-15T21:11:11;98980.50;;;22.68;29.67
75972;BME280;64651;47.540;19.088;2024-01-15T21:16:15;98989.69;;;22.65;29.67
75972;BME280;64651;47.540;19.088;2024-01-15T21:21:17;99002.53;;;22.70;29.39
75972;BME280;64651;47.540;19.088;2024-01-15T21:26:20;99022.97;;;22.70;29.74
75972;BME280;64651;47.540;19.088;2024-01-15T21:31:22;99039.78;;;22.70;31.55
75972;BME280;64651;47.540;19.088;2024-01-15T21:36:25;99045.38;;;22.66;32.70
75972;BME280;64651;47.540;19.088;2024-01-15T21:41:27;99055.78;;;22.66;33.41
75972;BME280;64651;47.540;19.088;2024-01-15T21:46:29;99068.63;;;22.71;33.91
75972;BME280;64651;47.540;19.088;2024-01-15T21:51:33;99053.41;;;22.68;34.01
75972;BME280;64651;47.540;19.088;2024-01-15T21:56:35;99042.19;;;22.68;34.04
75972;BME280;64651;47.540;19.088;2024-01-15T22:01:38;99061.41;;;22.70;33.95
75972;BME280;64651;47.540;19.088;2024-01-15T22:06:41;99071.03;;;22.69;33.81
75972;BME280;64651;47.540;19.088;2024-01-15T22:11:43;99074.69;;;22.73;33.65
75972;BME280;64651;47.540;19.088;2024-01-15T22:16:46;99080.66;;;22.71;33.40
75972;BME280;64651;47.540;19.088;2024-01-15T22:21:48;99083.44;;;22.67;32.86
75972;BME280;64651;47.540;19.088;2024-01-15T22:26:51;99089.44;;;22.66;32.79
75972;BME280;64651;47.540;19.088;2024-01-15T22:31:53;99071.00;;;22.65;32.86
75972;BME280;64651;47.540;19.088;2024-01-15T22:36:55;99089.44;;;22.62;32.66
75972;BME280;64651;47.540;19.088;2024-01-15T22:41:57;99098.22;;;22.61;32.33
75972;BME280;64651;47.540;19.088;2024-01-15T22:46:59;99111.06;;;22.62;32.24
75972;BME280;64651;47.540;19.088;2024-01-15T22:52:01;99101.44;;;22.63;32.12
75972;BME280;64651;47.540;19.088;2024-01-15T22:57:04;99115.44;;;22.63;32.05
75972;BME280;64651;47.540;19.088;2024-01-15T23:02:06;99120.28;;;22.62;31.86
75972;BME280;64651;47.540;19.088;2024-01-15T23:07:08;99112.62;;;22.59;31.58
75972;BME280;64651;47.540;19.088;2024-01-15T23:12:11;99122.28;;;22.62;31.74
75972;BME280;64651;47.540;19.088;2024-01-15T23:17:13;99118.25;;;22.59;31.75
75972;BME280;64651;47.540;19.088;2024-01-15T23:22:15;99125.84;;;22.59;31.95
75972;BME280;64651;47.540;19.088;2024-01-15T23:27:17;99129.03;;;22.54;31.86
75972;BME280;64651;47.540;19.088;2024-01-15T23:32:19;99133.44;;;22.58;31.45
75972;BME280;64651;47.540;19.088;2024-01-15T23:37:21;99121.44;;;22.58;31.57
75972;BME280;64651;47.540;19.088;2024-01-15T23:42:24;99121.44;;;22.54;31.30
75972;BME280;64651;47.540;19.088;2024-01-15T23:47:26;99130.28;;;22.60;31.15
75972;BME280;64651;47.540;19.088;2024-01-15T23:52:29;99143.88;;;22.58;31.08
75972;BME280;64651;47.540;19.088;2024-01-15T23:57:31;99147.84;;;22.57;31.01
